Time;durP1;ratioP1;P1;durP2;ratioP2;P2;SDS_P1;SDS_P2;PMS_P1;PMS_P2;Temp;Humidity;BMP_temperature;BMP_pressure;BME280_temperature;BME280_humidity;BME280_pressure;Samples;Min_cycle;Max_cycle;Signal;HPM_P1;HPM_P2
2022/04/12 00:00:39;;;;;;;;;4.00;4.00;;;;;8.32;52.59;99568.47;5054796;28;8849;-63
2022/04/12 00:03:06;;;;;;;;;5.80;5.60;;;;;8.25;52.54;99572.53;5040678;28;8835;-63
2022/04/12 00:05:35;;;;;;;;;4.00;4.00;;;;;8.21;52.84;99571.06;5038026;28;8828;-63
2022/04/12 00:08:02;;;;;;;;;3.60;3.60;;;;;8.18;52.95;99568.63;5039402;28;8853;-63
2022/04/12 00:10:30;;;;;;;;;4.20;3.80;;;;;8.19;53.00;99562.38;5038072;28;8848;-63
2022/04/12 00:12:58;;;;;;;;;3.80;3.80;;;;;8.26;52.76;99554.81;5039589;28;8828;-64
2022/04/12 00:15:26;;;;;;;;;3.80;3.00;;;;;8.39;52.56;99560.88;5038460;28;8844;-63
2022/04/12 00:20:38;;;;;;;;;4.20;3.60;;;;;8.62;52.03;99552.84;5057864;28;8837;-62
2022/04/12 00:23:06;;;;;;;;;6.60;6.40;;;;;8.69;51.80;99554.03;5057292;28;8827;-62
2022/04/12 00:25:34;;;;;;;;;3.00;1.80;;;;;8.79;51.92;99554.13;5056376;28;8957;-62
2022/04/12 00:28:01;;;;;;;;;3.00;3.00;;;;;8.88;51.43;99548.97;5053109;28;8926;-64
2022/04/12 00:30:29;;;;;;;;;3.80;3.80;;;;;8.96;51.47;99546.53;5050419;28;9486;-62
2022/04/12 00:32:57;;;;;;;;;4.00;3.20;;;;;9.05;51.66;99545.81;5049264;28;9526;-64
2022/04/12 00:35:25;;;;;;;;;6.80;5.00;;;;;9.10;51.10;99543.63;5036573;28;8855;-62
2022/04/12 00:37:53;;;;;;;;;2.60;1.00;;;;;9.14;51.59;99534.47;5056927;28;8811;-63
2022/04/12 00:40:20;;;;;;;;;2.00;1.00;;;;;9.18;51.32;99535.91;5058254;28;8857;-63
2022/04/12 00:42:48;;;;;;;;;4.00;3.50;;;;;9.20;51.53;99530.47;5056930;28;8814;-63
2022/04/12 00:45:16;;;;;;;;;5.00;4.00;;;;;9.18;51.60;99535.91;5056950;28;9626;-63
2022/04/12 00:47:44;;;;;;;;;4.00;4.00;;;;;9.17;51.32;99536.88;5057110;28;8912;-62
2022/04/12 00:50:11;;;;;;;;;4.80;4.00;;;;;9.09;51.67;99531.31;5057490;28;8910;-62
2022/04/12 00:52:39;;;;;;;;;6.50;5.50;;;;;8.99;51.90;99527.72;5039856;28;8906;-62
2022/04/12 00:55:08;;;;;;;;;5.50;5.50;;;;;8.88;52.05;99525.06;5037635;28;8840;-63
2022/04/12 00:57:36;;;;;;;;;4.00;3.40;;;;;8.77;51.91;99524.22;5037534;28;8856;-63
2022/04/12 01:00:04;;;;;;;;;4.00;4.00;;;;;8.68;52.33;99524.97;5042414;28;8859;-62
2022/04/12 01:02:31;;;;;;;;;3.60;3.60;;;;;8.67;52.52;99524.09;5055630;28;8822;-62
2022/04/12 01:04:59;;;;;;;;;3.80;3.80;;;;;8.76;52.88;99514.56;5057139;28;8911;-62
2022/04/12 01:07:27;;;;;;;;;3.20;3.20;;;;;8.83;51.96;99518.44;5055950;28;8854;-62
2022/04/12 01:09:55;;;;;;;;;5.20;4.80;;;;;8.83;52.08;99521.91;5057187;28;8876;-62
2022/04/12 01:12:23;;;;;;;;;4.00;3.00;;;;;8.88;52.44;99522.41;5057025;28;8811;-62
2022/04/12 01:14:51;;;;;;;;;3.40;3.40;;;;;8.94;52.29;99527.25;5041252;28;8918;-63
2022/04/12 01:17:18;;;;;;;;;3.00;3.00;;;;;8.97;51.83;99524.31;5056446;28;8852;-62
2022/04/12 01:19:46;;;;;;;;;3.00;3.00;;;;;8.96;51.99;99512.03;5055000;28;8838;-62
2022/04/12 01:22:14;;;;;;;;;3.50;3.50;;;;;8.95;52.17;99510.34;5055190;28;8853;-63
2022/04/12 01:24:42;;;;;;;;;1.80;0.80;;;;;8.90;52.32;99509.84;5057237;28;9805;-63
2022/04/12 01:27:10;;;;;;;;;6.40;6.20;;;;;8.86;52.39;99508.41;5042836;28;8906;-63
2022/04/12 01:29:39;;;;;;;;;1.00;1.00;;;;;8.80;52.50;99498.28;5038375;28;8845;-62
2022/04/12 01:32:07;;;;;;;;;4.50;4.50;;;;;8.75;52.53;99505.75;5026090;28;8851;-63
2022/04/12 01:34:36;;;;;;;;;6.00;4.00;;;;;8.70;52.64;99507.09;5039321;28;8857;-62
2022/04/12 01:37:03;;;;;;;;;5.60;5.60;;;;;8.62;52.72;99494.44;5043977;28;8894;-62
2022/04/12 01:39:31;;;;;;;;;7.00;5.20;;;;;8.58;52.98;99500.13;5037018;28;8837;-62
2022/04/12 01:41:59;;;;;;;;;6.40;6.40;;;;;8.51;53.34;99496.25;5048446;28;8868;-62
2022/04/12 01:44:27;;;;;;;;;4.00;4.00;;;;;8.46;53.29;99486.00;5044125;28;8805;-63
2022/04/12 01:46:54;;;;;;;;;5.60;5.20;;;;;8.42;53.34;99487.19;5034798;28;9498;-62
2022/04/12 01:49:22;;;;;;;;;6.20;6.20;;;;;8.38;53.66;99485.72;5018919;28;8839;-63
2022/04/12 01:51:50;;;;;;;;;3.20;3.20;;;;;8.35;53.64;99495.75;5036289;28;8832;-62
2022/04/12 01:54:18;;;;;;;;;4.40;4.40;;;;;8.31;53.47;99495.16;5036160;28;8851;-62
2022/04/12 01:56:45;;;;;;;;;4.00;4.00;;;;;8.25;53.81;99485.00;5036473;28;8824;-62
2022/04/12 01:59:13;;;;;;;;;4.00;4.00;;;;;8.22;53.58;99484.41;5036573;28;8888;-63
2022/04/12 02:01:41;;;;;;;;;3.60;3.60;;;;;8.17;53.50;99486.53;5049544;28;8831;-63
2022/04/12 02:04:09;;;;;;;;;4.00;4.00;;;;;8.14;54.02;99484.94;5043386;28;8862;-62
2022/04/12 02:06:36;;;;;;;;;3.00;3.00;;;;;8.11;54.21;99484.34;5036493;28;8849;-62
2022/04/12 02:09:04;;;;;;;;;4.40;4.00;;;;;8.09;53.73;99483.63;5036100;28;8833;-62
2022/04/12 02:11:32;;;;;;;;;5.20;5.20;;;;;8.08;54.02;99482.78;5036247;28;8836;-62
2022/04/12 02:14:00;;;;;;;;;3.40;3.40;;;;;8.07;53.99;99470.47;5043488;28;9477;-62
2022/04/12 02:16:27;;;;;;;;;3.40;3.40;;;;;8.05;54.15;99477.72;5054290;28;8861;-64
2022/04/12 02:18:55;;;;;;;;;3.00;3.00;;;;;8.04;53.38;99476.03;5051286;28;8826;-62
2022/04/12 02:21:23;;;;;;;;;2.60;0.80;;;;;8.02;53.83;99469.16;5055278;28;8803;-62
2022/04/12 02:23:50;;;;;;;;;4.80;3.60;;;;;8.01;53.97;99476.28;5055981;28;8848;-62
2022/04/12 02:26:19;;;;;;;;;3.80;3.80;;;;;7.98;54.19;99476.47;5055580;28;8822;-63
2022/04/12 02:28:47;;;;;;;;;6.00;5.20;;;;;7.96;54.43;99477.56;5055964;28;8847;-62
2022/04/12 02:31:14;;;;;;;;;4.80;4.80;;;;;7.96;54.23;99482.88;5054035;28;8819;-64
2022/04/12 02:33:42;;;;;;;;;4.80;4.20;;;;;7.96;53.81;99461.66;5055635;28;8815;-63
2022/04/12 02:36:10;;;;;;;;;4.80;4.00;;;;;8.00;53.66;99471.91;5041799;28;8842;-62
2022/04/12 02:38:42;;;;;;;;;5.00;4.60;;;;;8.03;53.96;99471.69;5035927;28;8858;-64
2022/04/12 02:41:10;;;;;;;;;6.00;6.00;;;;;8.04;54.18;99473.38;5035928;28;8863;-62
2022/04/12 02:43:38;;;;;;;;;3.00;3.00;;;;;8.07;54.08;99477.59;5035793;28;8829;-63
2022/04/12 02:46:06;;;;;;;;;6.40;6.00;;;;;8.09;53.81;99468.56;5035764;28;8833;-63
2022/04/12 02:48:34;;;;;;;;;4.00;3.40;;;;;8.11;53.95;99471.06;5036615;28;8894;-62
2022/04/12 02:51:01;;;;;;;;;4.40;4.00;;;;;8.12;53.91;99468.31;5035180;28;8817;-62
2022/04/12 02:53:29;;;;;;;;;4.00;4.00;;;;;8.10;54.46;99469.41;5035452;28;8844;-62
2022/04/12 02:55:58;;;;;;;;;5.20;4.40;;;;;8.10;54.12;99464.94;5035624;28;8867;-63
2022/04/12 02:58:25;;;;;;;;;5.40;5.20;;;;;8.07;54.22;99470.47;5034372;28;8891;-63
2022/04/12 03:00:53;;;;;;;;;6.00;4.00;;;;;8.04;54.17;99459.25;5036079;28;9552;-62
2022/04/12 03:03:21;;;;;;;;;3.00;3.00;;;;;8.02;54.28;99467.34;5051464;28;8861;-63
2022/04/12 03:05:49;;;;;;;;;0.80;0.00;;;;;8.01;54.16;99456.84;5054093;28;8815;-63
2022/04/12 03:08:17;;;;;;;;;5.20;5.20;;;;;8.00;54.52;99469.25;5052216;28;8944;-63
2022/04/12 03:10:45;;;;;;;;;5.20;5.20;;;;;8.01;54.52;99464.81;5054846;28;8814;-63
2022/04/12 03:13:13;;;;;;;;;3.00;3.00;;;;;8.02;54.44;99464.69;5052702;28;8806;-63
2022/04/12 03:15:41;;;;;;;;;3.80;3.80;;;;;8.03;54.80;99462.88;5034166;28;8836;-63
2022/04/12 03:18:08;;;;;;;;;3.20;3.00;;;;;8.08;53.84;99466.03;5034198;28;8836;-63
2022/04/12 03:20:36;;;;;;;;;3.00;3.00;;;;;8.12;54.01;99460.38;5034053;28;8867;-63
2022/04/12 03:23:06;;;;;;;;;5.20;4.00;;;;;8.17;54.15;99466.16;5034380;28;8863;-64
2022/04/12 03:25:34;;;;;;;;;2.20;1.40;;;;;8.22;54.00;99450.75;5052656;28;8871;-63
2022/04/12 03:28:02;;;;;;;;;4.00;4.00;;;;;8.25;53.87;99442.56;5054064;28;8867;-64
2022/04/12 03:30:29;;;;;;;;;5.20;4.00;;;;;8.32;53.93;99443.78;5053842;28;8847;-62
2022/04/12 03:32:57;;;;;;;;;2.60;2.20;;;;;8.44;53.46;99445.47;5052612;28;8850;-63
2022/04/12 03:35:26;;;;;;;;;4.00;4.00;;;;;8.58;52.98;99439.09;5055166;28;8841;-63
2022/04/12 03:37:53;;;;;;;;;3.40;3.00;;;;;8.74;53.31;99428.94;5053533;28;8838;-64
2022/04/12 03:40:26;;;;;;;;;4.80;4.80;;;;;8.88;52.72;99429.47;5044313;28;8826;-62
2022/04/12 03:42:54;;;;;;;;;3.00;3.00;;;;;9.01;52.42;99426.69;5053990;28;8822;-63
2022/04/12 03:45:22;;;;;;;;;2.60;2.60;;;;;9.10;52.60;99420.59;5035294;28;8825;-62
2022/04/12 03:47:50;;;;;;;;;3.40;3.40;;;;;9.15;52.18;99424.59;5036425;28;8873;-64
2022/04/12 03:50:17;;;;;;;;;4.00;4.00;;;;;9.16;52.76;99422.75;5034636;28;8880;-65
2022/04/12 03:52:45;;;;;;;;;6.00;6.00;;;;;9.14;52.52;99419.41;5034098;28;8824;-62
2022/04/12 03:55:14;;;;;;;;;3.00;3.00;;;;;9.10;52.80;99416.16;5033640;28;8842;-63
2022/04/12 03:57:42;;;;;;;;;3.40;3.40;;;;;9.10;52.75;99420.59;5033786;28;8857;-64
2022/04/12 04:00:09;;;;;;;;;5.20;4.40;;;;;9.10;52.73;99415.28;5033499;28;8848;-63
2022/04/12 04:02:37;;;;;;;;;6.40;6.00;;;;;9.11;52.94;99412.53;5043554;28;8869;-66
2022/04/12 04:05:05;;;;;;;;;1.50;0.75;;;;;9.14;52.80;99414.94;5053701;28;8847;-63
2022/04/12 04:07:33;;;;;;;;;1.50;1.50;;;;;9.18;52.79;99418.19;5052984;28;8827;-64
2022/04/12 04:10:00;;;;;;;;;5.20;5.20;;;;;9.19;52.86;99427.84;5053754;28;9547;-63
2022/04/12 04:12:28;;;;;;;;;5.00;4.00;;;;;9.14;52.65;99422.91;5044152;28;8969;-63
2022/04/12 04:14:56;;;;;;;;;2.50;2.50;;;;;9.12;52.82;99424.00;5051957;28;8838;-62
2022/04/12 04:17:24;;;;;;;;;4.00;4.00;;;;;9.07;52.84;99420.88;5058166;28;9476;-63
2022/04/12 04:19:52;;;;;;;;;4.00;4.00;;;;;9.00;53.05;99422.34;5058608;28;9536;-62
2022/04/12 04:22:20;;;;;;;;;4.00;4.00;;;;;8.93;53.47;99414.03;5057026;28;8825;-62
2022/04/12 04:24:47;;;;;;;;;5.00;3.75;;;;;8.87;53.52;99422.50;5058326;28;8866;-62
2022/04/12 04:27:16;;;;;;;;;1.00;0.00;;;;;8.82;53.42;99419.34;5040489;28;8861;-63
2022/04/12 04:29:44;;;;;;;;;5.20;5.20;;;;;8.79;53.43;99424.94;5058107;28;8838;-63
2022/04/12 04:32:11;;;;;;;;;3.00;3.00;;;;;8.78;53.71;99420.59;5046457;28;8847;-62
2022/04/12 04:34:39;;;;;;;;;6.00;4.00;;;;;8.75;53.56;99415.50;5036745;28;8837;-63
2022/04/12 04:37:07;;;;;;;;;3.50;3.00;;;;;8.71;53.62;99414.09;5036755;28;8844;-62
2022/04/12 04:39:35;;;;;;;;;3.00;2.60;;;;;8.68;53.71;99419.63;5036902;28;8821;-63
2022/04/12 04:42:05;;;;;;;;;6.00;4.40;;;;;8.74;53.60;99418.31;5045252;28;8819;-62
2022/04/12 04:44:33;;;;;;;;;3.00;2.50;;;;;8.78;53.64;99414.41;5054345;28;8843;-63
2022/04/12 04:47:00;;;;;;;;;4.00;3.00;;;;;8.79;53.64;99416.09;5057222;28;8840;-62
2022/04/12 04:49:28;;;;;;;;;5.00;4.00;;;;;8.84;53.14;99421.91;5057354;28;9550;-63
2022/04/12 04:51:56;;;;;;;;;4.00;3.25;;;;;8.92;53.57;99417.66;5056972;28;8822;-62
2022/04/12 04:54:24;;;;;;;;;5.40;5.20;;;;;9.02;53.43;99428.34;5057073;28;8959;-62
2022/04/12 04:56:52;;;;;;;;;3.40;3.40;;;;;9.13;53.10;99423.84;5053865;28;8866;-63
2022/04/12 04:59:19;;;;;;;;;3.40;3.40;;;;;9.21;52.95;99434.72;5054655;28;8854;-62
2022/04/12 05:01:54;;;;;;;;;6.40;4.80;;;;;9.31;52.64;99435.63;5036286;28;8817;-65
2022/04/12 05:04:22;;;;;;;;;1.00;1.00;;;;;9.43;52.18;99431.13;5037014;28;8850;-63
2022/04/12 05:06:49;;;;;;;;;3.25;3.25;;;;;9.52;52.74;99438.31;5035930;28;8821;-63
2022/04/12 05:09:17;;;;;;;;;4.50;4.00;;;;;9.58;52.29;99443.97;5036626;28;8828;-64
2022/04/12 05:11:45;;;;;;;;;5.20;4.80;;;;;9.67;52.24;99447.69;5036740;28;8825;-64
2022/04/12 05:14:13;;;;;;;;;3.75;3.75;;;;;9.79;52.22;99450.16;5044619;28;8818;-64
2022/04/12 05:16:40;;;;;;;;;3.25;3.00;;;;;9.91;51.55;99456.25;5036998;28;8833;-64
2022/04/12 05:19:08;;;;;;;;;3.00;3.00;;;;;9.99;51.75;99448.44;5036502;28;9697;-64
2022/04/12 05:21:36;;;;;;;;;2.00;2.00;;;;;10.08;51.48;99448.56;5034990;28;8859;-65
2022/04/12 05:24:05;;;;;;;;;3.00;3.00;;;;;10.16;51.44;99455.91;5036673;28;8844;-64
2022/04/12 05:26:32;;;;;;;;;0.25;0.25;;;;;10.21;51.40;99451.84;5036383;28;8912;-63
2022/04/12 05:29:00;;;;;;;;;3.50;3.50;;;;;10.23;51.32;99449.91;5036169;28;8836;-63
2022/04/12 05:31:28;;;;;;;;;3.50;3.50;;;;;10.28;51.76;99452.16;5036339;28;8825;-70
2022/04/12 05:33:59;;;;;;;;;3.00;2.00;;;;;10.30;51.18;99453.72;5036171;28;8856;-64
2022/04/12 05:36:27;;;;;;;;;1.50;1.00;;;;;10.31;51.26;99452.75;5035676;28;8846;-63
2022/04/12 05:38:56;;;;;;;;;3.00;3.00;;;;;10.30;51.50;99455.53;5036009;28;8913;-63
2022/04/12 05:41:24;;;;;;;;;3.25;3.25;;;;;10.29;51.45;99448.53;5036402;28;8971;-64
2022/04/12 05:43:52;;;;;;;;;1.00;1.00;;;;;10.25;51.62;99453.25;5041091;28;8822;-65
2022/04/12 05:46:20;;;;;;;;;1.00;1.00;;;;;10.20;51.71;99452.84;5040632;28;8844;-64
2022/04/12 05:48:48;;;;;;;;;3.25;3.25;;;;;10.16;51.59;99454.06;5035075;28;8851;-63
2022/04/12 05:51:16;;;;;;;;;3.50;1.50;;;;;10.16;51.90;99456.72;5055631;28;8834;-65
2022/04/12 05:53:43;;;;;;;;;3.50;3.25;;;;;10.20;51.73;99447.53;5055702;28;8965;-64
2022/04/12 05:56:11;;;;;;;;;5.00;2.00;;;;;10.27;51.67;99443.34;5054195;28;8857;-63
2022/04/12 05:58:40;;;;;;;;;3.25;3.25;;;;;10.35;51.71;99448.84;5054180;28;8898;-64
2022/04/12 06:01:08;;;;;;;;;5.50;5.25;;;;;10.41;51.65;99448.28;5053075;28;8916;-64
2022/04/12 06:03:36;;;;;;;;;4.50;3.50;;;;;10.51;51.82;99454.53;5037204;28;8854;-64
2022/04/12 06:06:04;;;;;;;;;5.75;3.50;;;;;10.62;51.61;99451.75;5034788;28;8933;-64
2022/04/12 06:08:32;;;;;;;;;3.25;3.00;;;;;10.79;51.30;99435.16;5050983;28;8852;-64
2022/04/12 06:10:59;;;;;;;;;6.00;4.00;;;;;10.98;51.29;99437.00;5053584;28;8849;-64
2022/04/12 06:13:28;;;;;;;;;4.50;4.50;;;;;11.16;50.61;99446.84;5042701;28;9503;-69
2022/04/12 06:15:56;;;;;;;;;3.00;3.00;;;;;11.35;50.67;99446.03;5048481;28;8859;-64
2022/04/12 06:18:24;;;;;;;;;4.00;3.25;;;;;11.51;50.41;99436.50;5053284;28;8830;-64
2022/04/12 06:20:52;;;;;;;;;4.50;4.00;;;;;11.65;50.29;99449.47;5037428;28;8857;-64
2022/04/12 06:23:20;;;;;;;;;5.00;4.00;;;;;11.74;50.30;99450.47;5035142;28;8836;-64
2022/04/12 06:25:47;;;;;;;;;3.25;3.00;;;;;11.86;50.30;99447.50;5034876;28;8832;-64
2022/04/12 06:28:15;;;;;;;;;3.00;3.00;;;;;11.97;50.41;99455.31;5035404;28;8856;-63
2022/04/12 06:30:43;;;;;;;;;6.00;5.50;;;;;12.09;49.71;99451.53;5034546;28;8844;-64
2022/04/12 06:33:12;;;;;;;;;3.50;3.50;;;;;12.24;49.81;99444.75;5052704;28;8826;-68
2022/04/12 06:35:39;;;;;;;;;3.25;2.00;;;;;12.35;49.52;99452.56;5054448;28;8822;-63
2022/04/12 06:38:08;;;;;;;;;6.75;5.00;;;;;12.43;49.31;99448.19;5043799;28;8843;-64
2022/04/12 06:40:36;;;;;;;;;6.75;6.50;;;;;12.50;49.37;99451.97;5034697;28;9529;-64
2022/04/12 06:43:03;;;;;;;;;4.25;3.00;;;;;12.61;49.52;99458.97;5040596;28;8814;-64
2022/04/12 06:45:31;;;;;;;;;2.00;1.00;;;;;12.73;49.04;99461.28;5046938;28;8924;-64
2022/04/12 06:47:59;;;;;;;;;3.25;3.00;;;;;12.82;49.10;99464.88;5052252;28;8803;-64
2022/04/12 06:50:27;;;;;;;;;5.50;5.00;;;;;12.85;49.21;99467.28;5053461;28;8854;-63
2022/04/12 06:52:55;;;;;;;;;3.25;2.00;;;;;12.88;48.87;99467.84;5053161;28;8916;-64
2022/04/12 06:55:22;;;;;;;;;4.00;4.00;;;;;12.97;49.00;99463.44;5053770;28;8872;-64
2022/04/12 06:57:50;;;;;;;;;3.00;3.00;;;;;13.11;48.35;99470.97;5052600;28;8854;-64
2022/04/12 07:00:18;;;;;;;;;1.50;1.00;;;;;13.24;48.67;99469.63;5053131;28;8840;-64
2022/04/12 07:02:46;;;;;;;;;2.00;2.00;;;;;13.35;47.88;99458.72;5052469;28;8852;-63
2022/04/12 07:05:14;;;;;;;;;3.75;3.00;;;;;13.47;48.11;99470.03;5034236;28;8987;-63
2022/04/12 07:07:42;;;;;;;;;4.50;3.00;;;;;13.58;47.47;99467.97;5033450;28;8821;-64
2022/04/12 07:10:10;;;;;;;;;4.00;4.00;;;;;13.68;47.28;99463.38;5034606;28;8867;-65
2022/04/12 07:12:37;;;;;;;;;4.50;4.00;;;;;13.78;47.28;99463.31;5034144;28;8859;-64
2022/04/12 07:15:05;;;;;;;;;3.00;3.00;;;;;13.84;47.25;99460.03;5037875;28;8889;-62
2022/04/12 07:17:33;;;;;;;;;3.50;3.00;;;;;13.88;47.25;99461.41;5046290;28;8951;-61
2022/04/12 07:20:01;;;;;;;;;0.75;0.00;;;;;13.96;47.67;99456.13;5033984;28;8820;-62
2022/04/12 07:22:29;;;;;;;;;3.00;3.00;;;;;14.09;47.38;99456.53;5034792;28;8890;-61
2022/04/12 07:24:56;;;;;;;;;4.25;4.25;;;;;14.24;47.08;99444.28;5050013;28;8823;-61
2022/04/12 07:27:24;;;;;;;;;6.00;5.00;;;;;14.38;46.59;99446.41;5053106;28;8863;-62
2022/04/12 07:29:52;;;;;;;;;3.75;3.00;;;;;14.50;46.35;99439.78;5051867;28;8837;-62
2022/04/12 07:32:20;;;;;;;;;3.00;3.00;;;;;14.62;46.38;99451.88;5054198;28;8937;-67
2022/04/12 07:34:47;;;;;;;;;3.75;3.75;;;;;14.74;46.51;99445.25;5052640;28;8848;-61
2022/04/12 07:37:16;;;;;;;;;3.00;3.00;;;;;14.84;46.53;99445.97;5049504;28;8833;-61
2022/04/12 07:39:44;;;;;;;;;4.00;4.00;;;;;14.94;46.26;99435.97;5033632;28;8824;-61
2022/04/12 07:42:12;;;;;;;;;3.00;3.00;;;;;15.02;45.96;99428.78;5032403;28;8836;-61
2022/04/12 07:44:39;;;;;;;;;4.50;4.50;;;;;15.14;45.75;99426.63;5034062;28;8859;-64
2022/04/12 07:47:07;;;;;;;;;3.00;3.00;;;;;15.24;45.63;99430.03;5018053;28;8846;-61
2022/04/12 07:49:35;;;;;;;;;3.00;1.00;;;;;15.36;45.89;99428.75;5055909;28;8846;-61
2022/04/12 07:52:03;;;;;;;;;4.50;3.50;;;;;15.45;45.32;99425.91;5056315;28;8830;-61
2022/04/12 07:54:30;;;;;;;;;3.00;1.50;;;;;15.55;45.33;99423.09;5055929;28;8842;-61
2022/04/12 07:56:58;;;;;;;;;3.75;3.25;;;;;15.70;44.87;99416.06;5057529;28;8853;-62
2022/04/12 07:59:26;;;;;;;;;4.00;3.00;;;;;15.88;44.72;99424.78;5053787;28;8912;-65
2022/04/12 08:01:54;;;;;;;;;3.00;3.00;;;;;16.05;44.59;99415.69;5057433;28;8843;-62
2022/04/12 08:04:22;;;;;;;;;4.00;4.00;;;;;16.21;44.19;99416.50;5044775;28;8824;-63
2022/04/12 08:06:49;;;;;;;;;2.50;1.00;;;;;16.34;43.93;99417.66;5037687;28;8863;-62
2022/04/12 08:09:17;;;;;;;;;3.00;3.00;;;;;16.49;44.21;99417.84;5036606;28;8850;-63
2022/04/12 08:11:45;;;;;;;;;6.50;4.00;;;;;16.64;43.80;99411.56;5036164;28;8824;-63
2022/04/12 08:14:12;;;;;;;;;6.00;6.00;;;;;16.77;43.41;99411.84;5036950;28;8918;-63
2022/04/12 08:16:40;;;;;;;;;1.00;1.00;;;;;16.91;43.51;99413.81;5052851;28;8815;-64
2022/04/12 08:19:08;;;;;;;;;6.00;6.00;;;;;17.03;43.44;99409.75;5051800;28;8820;-62
2022/04/12 08:21:36;;;;;;;;;4.50;4.50;;;;;17.15;43.37;99416.38;5037367;28;8934;-63
2022/04/12 08:24:03;;;;;;;;;5.00;5.00;;;;;17.29;43.01;99412.94;5036796;28;8832;-63
2022/04/12 08:26:31;;;;;;;;;4.75;4.75;;;;;17.45;42.48;99420.13;5036479;28;8817;-63
2022/04/12 08:28:58;;;;;;;;;5.20;4.00;;;;;17.59;42.39;99428.25;5037251;28;8844;-63
2022/04/12 08:31:26;;;;;;;;;4.00;4.00;;;;;17.69;42.49;99428.03;5036975;28;8840;-62
2022/04/12 08:33:54;;;;;;;;;3.40;3.40;;;;;17.78;42.08;99430.47;5037668;28;8947;-63
2022/04/12 08:36:22;;;;;;;;;3.00;3.00;;;;;17.92;42.19;99435.06;5051821;28;8849;-63
2022/04/12 08:38:53;;;;;;;;;5.60;5.60;;;;;18.08;41.63;99429.53;5044243;28;8848;-63
2022/04/12 08:41:20;;;;;;;;;4.00;4.00;;;;;18.24;41.86;99415.09;5036881;28;8880;-63
2022/04/12 08:43:52;;;;;;;;;3.20;3.00;;;;;18.38;41.70;99423.22;5036248;28;8832;-62
2022/04/12 08:46:20;;;;;;;;;4.00;3.20;;;;;18.49;40.98;99409.31;5049564;28;8841;-63
2022/04/12 08:48:48;;;;;;;;;3.00;3.00;;;;;18.59;41.46;99403.63;5055738;28;8960;-63
2022/04/12 08:51:15;;;;;;;;;4.40;4.00;;;;;18.69;40.87;99407.72;5041364;28;8844;-63
2022/04/12 08:53:44;;;;;;;;;3.00;3.00;;;;;18.86;40.93;99398.41;5036776;28;8842;-62
2022/04/12 08:56:11;;;;;;;;;4.80;4.80;;;;;19.00;40.55;99400.25;5037144;28;9498;-62
2022/04/12 08:58:39;;;;;;;;;3.80;3.80;;;;;19.09;40.67;99396.41;5050440;28;8827;-63
2022/04/12 09:01:26;;;;;;;;;5.60;3.80;;;;;19.18;40.48;99395.28;5039055;28;8813;-62
2022/04/12 09:03:54;;;;;;;;;6.00;6.00;;;;;19.28;40.08;99395.81;5037201;28;8884;-63
2022/04/12 09:06:23;;;;;;;;;6.00;4.60;;;;;19.45;40.02;99394.59;5035729;28;8995;-62
2022/04/12 09:08:51;;;;;;;;;5.40;4.00;;;;;19.66;39.97;99386.47;5035821;28;8851;-63
2022/04/12 09:11:18;;;;;;;;;5.40;5.40;;;;;19.89;39.35;99380.88;5037313;28;8879;-63
2022/04/12 09:13:46;;;;;;;;;4.00;4.00;;;;;20.16;39.41;99378.22;5037241;28;8867;-63
2022/04/12 09:16:14;;;;;;;;;6.00;5.20;;;;;20.46;39.01;99373.44;5036159;28;8840;-64
2022/04/12 09:18:44;;;;;;;;;4.00;4.00;;;;;20.77;38.81;99368.41;5035602;28;8902;-67
2022/04/12 09:21:12;;;;;;;;;3.20;2.80;;;;;21.12;38.27;99371.72;5046029;28;8842;-63
2022/04/12 09:23:41;;;;;;;;;4.00;4.00;;;;;21.47;37.68;99375.16;5054257;28;8833;-68
2022/04/12 09:26:08;;;;;;;;;4.60;4.60;;;;;21.77;37.86;99373.78;5055266;28;8854;-63
2022/04/12 09:28:37;;;;;;;;;4.00;4.00;;;;;22.01;37.56;99365.06;5055670;28;8856;-63
2022/04/12 09:31:20;;;;;;;;;4.00;4.00;;;;;22.34;37.28;99360.41;5051855;28;8924;-64
2022/04/12 09:33:48;;;;;;;;;3.20;3.20;;;;;22.64;37.18;99353.50;5034543;28;9796;-63
2022/04/12 09:36:18;;;;;;;;;2.00;2.00;;;;;22.84;37.00;99352.38;5034656;28;8986;-68
2022/04/12 09:38:46;;;;;;;;;4.20;4.00;;;;;23.10;36.31;99355.00;5035396;28;8847;-62
2022/04/12 09:41:13;;;;;;;;;2.00;2.00;;;;;23.09;36.47;99363.38;5034979;28;8843;-62
2022/04/12 09:43:41;;;;;;;;;0.80;0.40;;;;;22.80;36.29;99355.75;5044628;28;8823;-63
2022/04/12 09:46:13;;;;;;;;;3.60;3.60;;;;;22.65;36.78;99344.31;5053595;28;8839;-63
2022/04/12 09:48:42;;;;;;;;;1.60;1.60;;;;;22.50;36.80;99351.84;5051815;28;8862;-63
2022/04/12 09:51:30;;;;;;;;;1.00;1.00;;;;;22.57;36.87;99355.41;5049016;28;9542;-64
2022/04/12 09:53:58;;;;;;;;;1.00;1.00;;;;;22.83;36.79;99336.31;5034400;28;8862;-63
2022/04/12 09:56:26;;;;;;;;;0.40;0.00;;;;;23.37;35.06;99339.44;5034338;28;8843;-63
2022/04/12 09:58:54;;;;;;;;;2.00;1.00;;;;;23.88;34.71;99337.41;5038559;28;9557;-63
2022/04/12 10:01:21;;;;;;;;;2.40;2.00;;;;;24.24;33.71;99334.78;5052732;28;8894;-63
2022/04/12 10:03:49;;;;;;;;;2.00;2.00;;;;;24.53;33.75;99331.34;5054665;28;8844;-64
2022/04/12 10:06:17;;;;;;;;;2.00;2.00;;;;;24.89;33.57;99328.66;5055389;28;8835;-63
2022/04/12 10:08:45;;;;;;;;;2.00;2.00;;;;;25.29;32.42;99329.84;5053958;28;8822;-63
2022/04/12 10:11:12;;;;;;;;;4.40;4.20;;;;;25.52;32.62;99327.19;5052285;28;8850;-63
2022/04/12 10:13:41;;;;;;;;;3.20;3.20;;;;;25.74;32.30;99326.44;5053814;28;8841;-63
2022/04/12 10:16:09;;;;;;;;;2.00;2.00;;;;;25.98;31.73;99311.78;5054515;28;8826;-63
2022/04/12 10:18:37;;;;;;;;;2.00;2.00;;;;;26.30;32.14;99330.34;5054788;28;8840;-63
2022/04/12 10:21:04;;;;;;;;;2.00;2.00;;;;;26.57;31.32;99311.59;5036463;28;8976;-63
2022/04/12 10:23:32;;;;;;;;;2.00;2.00;;;;;26.94;30.66;99313.75;5048088;28;8851;-62
2022/04/12 10:26:00;;;;;;;;;2.00;2.00;;;;;27.31;28.98;99311.53;5053501;28;8834;-63
2022/04/12 10:28:28;;;;;;;;;2.00;2.00;;;;;27.47;29.75;99314.28;5051164;28;8899;-63
2022/04/12 10:30:55;;;;;;;;;2.00;2.00;;;;;27.64;29.36;99317.91;5033705;28;8836;-62
2022/04/12 10:33:27;;;;;;;;;3.00;2.00;;;;;27.67;29.22;99309.19;5033300;28;8836;-62
2022/04/12 10:35:55;;;;;;;;;2.20;2.20;;;;;27.89;29.07;99314.78;5041333;28;8835;-62
2022/04/12 10:38:23;;;;;;;;;2.20;1.80;;;;;28.18;28.57;99311.72;5053946;28;8868;-62
2022/04/12 10:40:53;;;;;;;;;2.00;2.00;;;;;28.57;27.78;99299.72;5039892;28;8836;-62
2022/04/12 10:43:21;;;;;;;;;1.00;1.00;;;;;28.75;27.70;99296.66;5034455;28;8848;-62
2022/04/12 10:45:49;;;;;;;;;2.00;2.00;;;;;28.76;26.94;99312.03;5034914;28;8852;-67
2022/04/12 10:48:16;;;;;;;;;2.20;2.20;;;;;28.81;27.24;99298.41;5034605;28;8848;-62
2022/04/12 10:50:44;;;;;;;;;2.00;1.40;;;;;28.93;27.39;99287.31;5053340;28;8840;-62
2022/04/12 10:53:12;;;;;;;;;2.60;2.20;;;;;28.97;27.00;99299.47;5035778;28;8837;-62
2022/04/12 10:55:40;;;;;;;;;1.00;1.00;;;;;29.07;27.02;99289.44;5051437;28;8818;-62
2022/04/12 10:58:07;;;;;;;;;2.00;1.20;;;;;29.20;27.04;99283.53;5052371;28;9671;-63
2022/04/12 11:00:35;;;;;;;;;2.00;1.60;;;;;29.46;26.71;99292.88;5037892;28;8840;-63
2022/04/12 11:03:23;;;;;;;;;0.60;0.00;;;;;29.75;26.41;99295.13;5033141;28;8876;-62
2022/04/12 11:05:51;;;;;;;;;2.00;2.00;;;;;29.76;26.24;99288.53;5033857;28;8829;-62
2022/04/12 11:08:19;;;;;;;;;2.80;2.80;;;;;29.80;26.09;99294.34;5045381;28;9865;-62
2022/04/12 11:10:47;;;;;;;;;2.00;2.00;;;;;29.93;26.36;99289.22;5038783;28;8963;-63
2022/04/12 11:13:14;;;;;;;;;3.00;3.00;;;;;30.15;26.63;99287.22;5032815;28;8841;-65
2022/04/12 11:15:42;;;;;;;;;3.00;3.00;;;;;30.46;25.94;99283.59;5033612;28;8905;-63
2022/04/12 11:18:10;;;;;;;;;2.00;2.00;;;;;30.80;25.49;99279.41;5033721;28;8844;-63
2022/04/12 11:20:38;;;;;;;;;3.00;2.00;;;;;31.31;25.15;99286.75;5035207;28;8967;-62
2022/04/12 11:23:08;;;;;;;;;2.00;2.00;;;;;31.84;24.29;99283.56;5037054;28;8836;-62
2022/04/12 11:25:37;;;;;;;;;2.00;1.80;;;;;31.97;24.48;99288.53;5050985;28;8855;-62
2022/04/12 11:28:05;;;;;;;;;3.00;2.80;;;;;31.99;24.10;99278.88;5037518;28;8875;-62
2022/04/12 11:30:33;;;;;;;;;2.00;2.00;;;;;31.87;24.75;99274.75;5037543;28;8848;-63
2022/04/12 11:33:02;;;;;;;;;2.20;2.00;;;;;31.91;23.85;99273.09;5037648;28;8848;-64
2022/04/12 11:35:29;;;;;;;;;3.00;3.00;;;;;32.01;24.41;99270.34;5037722;28;8918;-63
2022/04/12 11:37:57;;;;;;;;;2.00;2.00;;;;;32.45;24.02;99271.38;5038131;28;8837;-62
2022/04/12 11:40:25;;;;;;;;;1.80;1.00;;;;;32.67;23.55;99261.69;5039774;28;8820;-62
2022/04/12 11:42:53;;;;;;;;;3.00;2.80;;;;;32.40;23.34;99266.72;5036928;28;8844;-62
2022/04/12 11:45:20;;;;;;;;;3.00;2.00;;;;;31.85;24.53;99265.91;5037380;28;8846;-63
2022/04/12 11:47:49;;;;;;;;;1.60;1.60;;;;;31.90;23.82;99264.00;5037677;28;8871;-62
2022/04/12 11:50:16;;;;;;;;;2.40;2.00;;;;;31.88;23.24;99262.63;5038058;28;8862;-63
2022/04/12 11:52:44;;;;;;;;;1.00;1.00;;;;;32.16;23.81;99257.34;5037368;28;8857;-63